createdAt,value
2019-01-31T00:02:23.273Z,4.03
2019-01-31T00:05:18.424Z,4.27
2019-01-31T00:08:16.294Z,3.37
2019-01-31T00:10:53.175Z,6.07
2019-01-31T00:13:45.194Z,5.73
2019-01-31T00:16:30.421Z,5.30
2019-01-31T00:19:37.792Z,5.27
2019-01-31T00:22:26.560Z,4.33
2019-01-31T00:25:03.112Z,4.40
2019-01-31T00:27:37.266Z,6.00
2019-01-31T00:30:20.361Z,3.00
2019-01-31T00:33:21.514Z,5.17
2019-01-31T00:36:28.681Z,4.70
2019-01-31T00:39:28.057Z,3.57
2019-01-31T00:42:05.033Z,3.70
2019-01-31T00:44:47.831Z,7.00
2019-01-31T00:47:24.585Z,6.20
2019-01-31T00:50:04.255Z,5.00
2019-01-31T00:52:49.740Z,4.80
2019-01-31T00:55:38.395Z,7.07
2019-01-31T00:58:41.213Z,4.47
2019-01-31T01:01:32.816Z,8.90
2019-01-31T01:04:34.070Z,7.43
2019-01-31T01:07:19.978Z,6.83
2019-01-31T01:10:02.972Z,6.33
2019-01-31T01:12:51.735Z,6.60
2019-01-31T01:15:36.233Z,4.57
2019-01-31T01:18:34.479Z,7.13
2019-01-31T01:21:14.058Z,7.43
2019-01-31T01:24:05.540Z,5.30
2019-01-31T01:26:59.070Z,6.17
2019-01-31T01:29:39.160Z,5.03
2019-01-31T01:32:34.625Z,4.50
2019-01-31T01:35:26.629Z,5.10
2019-01-31T01:38:15.857Z,3.37
2019-01-31T01:41:10.677Z,5.87
2019-01-31T01:44:11.994Z,3.67
2019-01-31T01:47:06.412Z,6.23
2019-01-31T01:49:58.385Z,4.90
2019-01-31T01:52:50.338Z,5.63
2019-01-31T01:56:00.001Z,3.73
2019-01-31T01:58:39.154Z,6.17
2019-01-31T02:01:31.383Z,4.23
2019-01-31T02:04:05.538Z,3.47
2019-01-31T02:06:47.848Z,4.93
2019-01-31T02:09:53.271Z,3.83
2019-01-31T02:12:43.695Z,5.50
2019-01-31T02:15:26.547Z,2.40
2019-01-31T02:18:09.503Z,2.77
2019-01-31T02:20:58.429Z,4.57
2019-01-31T02:23:35.242Z,2.93
2019-01-31T02:26:14.545Z,3.07
2019-01-31T02:29:03.340Z,3.83
2019-01-31T02:31:58.379Z,2.97
2019-01-31T02:34:41.106Z,2.83
2019-01-31T02:37:26.536Z,3.97
2019-01-31T02:40:12.253Z,2.67
2019-01-31T02:42:49.130Z,5.20
2019-01-31T02:45:44.172Z,5.27
2019-01-31T02:48:24.568Z,3.57
2019-01-31T02:51:16.012Z,5.23
2019-01-31T02:54:04.328Z,2.83
2019-01-31T02:57:05.940Z,3.17
2019-01-31T03:00:10.053Z,3.60
2019-01-31T03:03:07.528Z,3.57
2019-01-31T03:06:17.288Z,4.07
2019-01-31T03:09:07.838Z,3.53
2019-01-31T03:11:44.905Z,2.63
2019-01-31T03:14:19.235Z,3.30
2019-01-31T03:17:02.130Z,2.67
2019-01-31T03:19:57.381Z,2.10
2019-01-31T03:22:34.238Z,3.27
2019-01-31T03:25:26.325Z,2.27
2019-01-31T03:28:22.709Z,1.97
2019-01-31T03:31:30.251Z,3.20
2019-01-31T03:34:10.381Z,2.83
2019-01-31T03:37:16.318Z,3.70
2019-01-31T03:40:07.687Z,2.60
2019-01-31T03:43:05.220Z,4.47
2019-01-31T03:45:57.053Z,3.27
2019-01-31T03:49:07.557Z,3.17
2019-01-31T03:51:53.010Z,4.60
2019-01-31T03:54:42.423Z,3.13
2019-01-31T03:57:24.776Z,3.57
2019-01-31T03:59:58.918Z,3.30
2019-01-31T04:02:41.559Z,2.43
2019-01-31T04:05:15.697Z,4.47
2019-01-31T04:07:45.143Z,4.03
2019-01-31T04:10:19.018Z,4.40
2019-01-31T04:12:45.809Z,3.67
2019-01-31T04:15:15.232Z,2.43
2019-01-31T04:17:44.674Z,5.60
2019-01-31T04:20:14.345Z,2.67
2019-01-31T04:22:43.798Z,6.30
2019-01-31T04:25:13.362Z,2.90
2019-01-31T04:27:42.801Z,3.37
2019-01-31T04:30:16.805Z,2.17
2019-01-31T04:32:46.245Z,3.40
2019-01-31T04:35:15.675Z,3.63
2019-01-31T04:37:45.118Z,2.77
2019-01-31T04:40:14.549Z,3.50
2019-01-31T04:42:43.996Z,2.20
2019-01-31T04:45:13.487Z,1.40
2019-01-31T04:47:42.934Z,2.83
2019-01-31T04:50:14.879Z,1.97
2019-01-31T04:52:44.319Z,2.83
2019-01-31T04:55:13.813Z,2.97
2019-01-31T04:57:43.254Z,4.37
2019-01-31T05:00:18.388Z,2.53
2019-01-31T05:02:47.830Z,2.60
2019-01-31T05:05:17.475Z,2.67
2019-01-31T05:07:46.933Z,2.10
2019-01-31T05:10:18.124Z,2.73
2019-01-31T05:12:47.574Z,3.53
2019-01-31T05:15:17.073Z,2.50
2019-01-31T05:17:46.526Z,3.27
2019-01-31T05:20:18.178Z,4.27
2019-01-31T05:22:47.624Z,3.03
2019-01-31T05:25:17.423Z,4.20
2019-01-31T05:27:46.861Z,4.13
2019-01-31T05:30:17.430Z,3.47
2019-01-31T05:32:46.865Z,3.03
2019-01-31T05:35:17.072Z,3.17
2019-01-31T05:37:46.513Z,3.20
2019-01-31T05:40:16.310Z,3.00
2019-01-31T05:42:45.742Z,4.30
2019-01-31T05:45:16.591Z,3.53
2019-01-31T05:47:46.025Z,2.93
2019-01-31T05:50:17.560Z,2.43
2019-01-31T05:52:46.999Z,3.60
2019-01-31T05:55:16.510Z,3.20
2019-01-31T05:57:45.937Z,5.00
2019-01-31T06:00:23.964Z,3.63
2019-01-31T06:02:53.455Z,3.17
2019-01-31T06:05:23.045Z,4.37
2019-01-31T06:07:52.478Z,5.37
2019-01-31T06:10:21.987Z,3.37
2019-01-31T06:12:51.419Z,5.13
2019-01-31T06:15:20.918Z,3.20
2019-01-31T06:17:50.463Z,2.80
2019-01-31T06:20:23.751Z,5.07
2019-01-31T06:22:53.252Z,4.33
2019-01-31T06:25:22.689Z,3.60
2019-01-31T06:27:52.121Z,5.90
2019-01-31T06:30:21.558Z,5.13
2019-01-31T06:32:50.994Z,5.50
2019-01-31T06:35:20.507Z,4.47
2019-01-31T06:37:49.931Z,4.07
2019-01-31T06:40:21.511Z,3.30
2019-01-31T06:42:51.113Z,3.80
2019-01-31T06:45:22.393Z,5.70
2019-01-31T06:47:51.819Z,5.60
2019-01-31T06:50:21.326Z,5.07
2019-01-31T06:52:50.753Z,4.27
2019-01-31T06:55:20.197Z,6.03
2019-01-31T06:57:49.634Z,4.47
2019-01-31T07:00:24.276Z,8.30
2019-01-31T07:02:53.776Z,3.30
2019-01-31T07:05:23.220Z,4.33
2019-01-31T07:07:52.650Z,4.00
2019-01-31T07:10:25.205Z,5.37
2019-01-31T07:12:54.643Z,5.33
2019-01-31T07:15:24.086Z,6.47
2019-01-31T07:17:53.516Z,3.00
2019-01-31T07:20:22.963Z,6.07
2019-01-31T07:22:52.386Z,3.90
2019-01-31T07:25:24.723Z,3.83
2019-01-31T07:27:54.151Z,4.67
2019-01-31T07:30:26.673Z,4.33
2019-01-31T07:32:55.652Z,3.63
2019-01-31T07:35:25.094Z,11.27
2019-01-31T07:37:54.525Z,5.73
2019-01-31T07:40:24.417Z,4.90
2019-01-31T07:42:53.833Z,5.97
2019-01-31T07:45:31.748Z,10.17
2019-01-31T07:48:01.387Z,5.03
2019-01-31T07:50:30.895Z,3.07
2019-01-31T07:53:00.328Z,11.27
2019-01-31T07:55:29.769Z,6.40
2019-01-31T07:57:59.204Z,3.50
2019-01-31T08:00:28.652Z,3.27
2019-01-31T08:02:58.165Z,8.70
2019-01-31T08:05:27.605Z,5.47
2019-01-31T08:07:58.074Z,6.30
2019-01-31T08:10:40.113Z,6.37
2019-01-31T08:13:09.723Z,5.90
2019-01-31T08:15:39.167Z,5.67
2019-01-31T08:18:10.930Z,6.50
2019-01-31T08:20:39.778Z,7.60
2019-01-31T08:23:10.325Z,4.27
2019-01-31T08:25:40.065Z,4.93
2019-01-31T08:28:09.947Z,4.83
2019-01-31T08:30:44.232Z,2.70
2019-01-31T08:33:13.670Z,4.03
2019-01-31T08:35:43.105Z,4.23
2019-01-31T08:38:12.547Z,3.80
2019-01-31T08:40:42.057Z,3.63
2019-01-31T08:43:11.502Z,4.50
2019-01-31T08:45:40.942Z,1.90
2019-01-31T08:48:10.458Z,3.33
2019-01-31T08:50:40.026Z,3.50
2019-01-31T08:53:09.464Z,2.30
2019-01-31T08:55:38.961Z,4.07
2019-01-31T08:58:08.401Z,3.17
2019-01-31T09:00:37.833Z,3.10
2019-01-31T09:03:07.342Z,2.53
2019-01-31T09:05:36.779Z,4.97
2019-01-31T09:08:06.212Z,4.63
2019-01-31T09:10:39.517Z,6.80
2019-01-31T09:13:11.167Z,7.43
2019-01-31T09:15:40.731Z,5.37
2019-01-31T09:18:10.237Z,5.73
2019-01-31T09:20:56.676Z,4.40
2019-01-31T09:23:48.796Z,4.57
2019-01-31T09:27:06.112Z,4.17
2019-01-31T09:29:49.333Z,5.03
2019-01-31T09:32:50.862Z,4.17
2019-01-31T09:35:36.789Z,6.77
2019-01-31T09:38:28.881Z,5.97
2019-01-31T09:41:11.866Z,5.80
2019-01-31T09:43:51.795Z,9.53
2019-01-31T09:46:31.692Z,8.17
2019-01-31T09:49:45.266Z,6.07
2019-01-31T09:52:31.241Z,7.70
2019-01-31T09:55:56.241Z,3.93
2019-01-31T09:58:36.228Z,4.47
2019-01-31T10:01:52.602Z,6.40
2019-01-31T10:04:35.407Z,5.97
2019-01-31T10:07:35.975Z,6.43
2019-01-31T10:10:38.452Z,4.40
2019-01-31T10:13:51.407Z,5.87
2019-01-31T10:16:34.098Z,5.10
2019-01-31T10:19:37.130Z,3.77
2019-01-31T10:22:32.597Z,3.30
2019-01-31T10:25:23.994Z,5.27
2019-01-31T10:28:22.311Z,4.03
2019-01-31T10:31:17.369Z,4.37
2019-01-31T10:34:05.687Z,2.00
2019-01-31T10:36:39.828Z,2.50
2019-01-31T10:39:31.911Z,1.53
2019-01-31T10:42:30.262Z,3.97
2019-01-31T10:45:39.478Z,2.77
2019-01-31T10:48:31.632Z,2.93
2019-01-31T10:51:17.357Z,3.53
2019-01-31T10:54:09.674Z,2.83
2019-01-31T10:57:07.619Z,3.27
2019-01-31T10:59:44.321Z,2.83
2019-01-31T11:02:34.806Z,2.00
2019-01-31T11:05:30.073Z,1.90
2019-01-31T11:08:20.594Z,1.60
2019-01-31T11:11:12.536Z,1.20
2019-01-31T11:14:16.371Z,1.70
2019-01-31T11:17:28.446Z,1.57
2019-01-31T11:20:23.546Z,1.73
2019-01-31T11:23:12.540Z,1.40
2019-01-31T11:26:18.579Z,2.07
2019-01-31T11:29:18.522Z,2.13
2019-01-31T11:32:07.215Z,1.53
2019-01-31T11:34:49.416Z,1.67
2019-01-31T11:37:31.827Z,1.57
2019-01-31T11:40:30.068Z,1.27
2019-01-31T11:43:13.224Z,1.50
2019-01-31T11:46:09.881Z,1.50
2019-01-31T11:49:01.914Z,2.33
2019-01-31T11:52:11.689Z,1.13
2019-01-31T11:54:57.623Z,3.03
2019-01-31T11:58:12.069Z,2.63
2019-01-31T12:00:41.512Z,1.77
2019-01-31T12:03:11.311Z,1.50
2019-01-31T12:05:40.812Z,1.03
2019-01-31T12:08:10.309Z,0.80
2019-01-31T12:10:39.820Z,1.27
2019-01-31T12:13:09.320Z,1.77
2019-01-31T12:15:38.830Z,1.70
2019-01-31T12:18:09.010Z,1.37
2019-01-31T12:20:38.501Z,1.07
2019-01-31T12:23:07.929Z,1.60
2019-01-31T12:25:37.369Z,1.43
2019-01-31T12:28:06.800Z,1.53
2019-01-31T12:30:36.249Z,0.90
2019-01-31T12:33:06.164Z,0.87
2019-01-31T12:35:35.655Z,1.10
2019-01-31T12:38:05.373Z,0.90
2019-01-31T12:40:34.797Z,0.60
2019-01-31T12:43:04.235Z,1.03
2019-01-31T12:45:33.660Z,0.97
2019-01-31T12:48:03.164Z,3.87
2019-01-31T12:50:32.596Z,0.80
2019-01-31T12:53:02.209Z,3.23
2019-01-31T12:55:31.702Z,4.93
2019-01-31T12:58:01.252Z,1.10
2019-01-31T13:00:30.911Z,1.27
2019-01-31T13:03:00.342Z,1.40
2019-01-31T13:05:29.766Z,0.77
2019-01-31T13:07:59.206Z,0.60
2019-01-31T13:10:28.635Z,0.80
2019-01-31T13:12:58.515Z,1.10
2019-01-31T13:15:29.439Z,0.80
2019-01-31T13:17:59.117Z,0.70
2019-01-31T13:20:28.547Z,0.90
2019-01-31T13:22:58.120Z,0.80
2019-01-31T13:25:28.253Z,0.67
2019-01-31T13:27:57.762Z,2.60
2019-01-31T13:30:27.504Z,1.27
2019-01-31T13:32:57.979Z,0.87
2019-01-31T13:35:27.412Z,0.90
2019-01-31T13:37:56.847Z,2.03
2019-01-31T13:40:27.384Z,1.63
2019-01-31T13:42:57.331Z,1.10
2019-01-31T13:45:32.869Z,1.10
2019-01-31T13:48:06.418Z,0.83
2019-01-31T13:50:36.015Z,0.73
2019-01-31T13:53:08.354Z,1.17
2019-01-31T13:55:37.940Z,1.00
2019-01-31T13:58:10.100Z,0.70
2019-01-31T14:00:38.871Z,1.10
2019-01-31T14:03:08.376Z,0.80
2019-01-31T14:05:37.797Z,0.77
2019-01-31T14:08:07.682Z,0.50
2019-01-31T14:10:37.549Z,2.20
2019-01-31T14:13:07.027Z,3.67
2019-01-31T14:15:36.688Z,1.10
2019-01-31T14:18:06.437Z,1.00
2019-01-31T14:20:36.746Z,1.40
2019-01-31T14:23:06.521Z,0.80
2019-01-31T14:25:37.589Z,0.93
2019-01-31T14:28:07.102Z,2.27
2019-01-31T14:30:38.270Z,1.77
2019-01-31T14:33:13.142Z,1.20
2019-01-31T14:35:42.921Z,1.67
2019-01-31T14:38:12.359Z,0.83
2019-01-31T14:40:42.034Z,0.47
2019-01-31T14:43:11.665Z,1.83
2019-01-31T14:45:41.087Z,2.07
2019-01-31T14:48:10.533Z,0.57
2019-01-31T14:50:40.088Z,1.27
2019-01-31T14:53:09.464Z,1.43
2019-01-31T14:55:38.958Z,1.20
2019-01-31T14:58:10.299Z,2.60
2019-01-31T15:00:39.724Z,4.13
2019-01-31T15:03:09.160Z,2.73
2019-01-31T15:05:38.654Z,2.13
2019-01-31T15:08:08.430Z,1.97
2019-01-31T15:10:37.864Z,4.20
2019-01-31T15:13:07.516Z,1.87
2019-01-31T15:15:36.943Z,2.33
2019-01-31T15:18:07.289Z,1.60
2019-01-31T15:20:42.716Z,1.80
2019-01-31T15:23:12.223Z,1.77
2019-01-31T15:25:41.723Z,1.17
2019-01-31T15:28:11.165Z,1.20
2019-01-31T15:30:40.666Z,1.80
2019-01-31T15:33:12.585Z,1.70
2019-01-31T15:35:42.148Z,2.13
2019-01-31T15:38:11.758Z,1.83
2019-01-31T15:40:48.602Z,1.80
2019-01-31T15:43:18.036Z,4.13
2019-01-31T15:45:47.471Z,1.50
2019-01-31T15:48:18.243Z,3.80
2019-01-31T15:50:47.686Z,2.60
2019-01-31T15:53:17.104Z,3.43
2019-01-31T15:55:46.543Z,2.17
2019-01-31T15:58:15.974Z,3.10
2019-01-31T16:00:49.195Z,1.33
2019-01-31T16:03:20.532Z,4.80
2019-01-31T16:05:50.336Z,5.83
2019-01-31T16:08:19.764Z,3.00
2019-01-31T16:10:49.320Z,2.77
2019-01-31T16:13:18.876Z,7.60
2019-01-31T16:15:48.388Z,2.97
2019-01-31T16:18:17.888Z,3.10
2019-01-31T16:20:47.394Z,2.37
2019-01-31T16:23:17.362Z,2.87
2019-01-31T16:25:47.924Z,4.90
2019-01-31T16:28:17.619Z,3.37
2019-01-31T16:30:47.399Z,2.93
2019-01-31T16:33:16.819Z,1.83
2019-01-31T16:35:46.431Z,3.17
2019-01-31T16:38:15.853Z,2.73
2019-01-31T16:40:45.380Z,2.33
2019-01-31T16:43:14.861Z,3.50
2019-01-31T16:45:46.157Z,2.93
2019-01-31T16:48:15.519Z,3.00
2019-01-31T16:50:45.027Z,4.13
2019-01-31T16:53:14.457Z,2.00
2019-01-31T16:55:43.896Z,3.33
2019-01-31T16:58:13.397Z,2.93
2019-01-31T17:00:43.873Z,6.63
2019-01-31T17:03:13.426Z,4.47
2019-01-31T17:05:43.193Z,3.03
2019-01-31T17:08:12.617Z,3.40
2019-01-31T17:10:42.057Z,3.10
2019-01-31T17:13:11.552Z,2.87
2019-01-31T17:15:40.985Z,2.33
2019-01-31T17:18:10.413Z,2.40
2019-01-31T17:20:42.364Z,5.57
2019-01-31T17:23:11.759Z,5.40
2019-01-31T17:25:41.198Z,6.43
2019-01-31T17:28:10.627Z,5.27
2019-01-31T17:30:40.066Z,5.50
2019-01-31T17:33:09.565Z,4.77
2019-01-31T17:35:39.007Z,3.67
2019-01-31T17:38:08.680Z,3.60
2019-01-31T17:40:39.260Z,3.87
2019-01-31T17:43:09.127Z,3.00
2019-01-31T17:45:38.563Z,6.63
2019-01-31T17:48:09.969Z,3.67
2019-01-31T17:50:39.404Z,2.87
2019-01-31T17:53:08.838Z,3.30
2019-01-31T17:55:38.263Z,3.07
2019-01-31T17:58:07.771Z,3.27
2019-01-31T18:00:43.071Z,4.00
2019-01-31T18:03:12.870Z,3.70
2019-01-31T18:05:42.363Z,2.60
2019-01-31T18:08:11.882Z,3.83
2019-01-31T18:10:41.374Z,4.50
2019-01-31T18:13:10.813Z,6.37
2019-01-31T18:15:42.291Z,3.53
2019-01-31T18:18:11.397Z,5.43
2019-01-31T18:20:40.820Z,4.33
2019-01-31T18:23:10.269Z,4.17
2019-01-31T18:25:39.696Z,4.47
2019-01-31T18:28:09.135Z,4.57
2019-01-31T18:30:39.496Z,4.37
2019-01-31T18:33:08.932Z,4.13
2019-01-31T18:35:38.357Z,4.23
2019-01-31T18:38:07.799Z,4.20
2019-01-31T18:40:37.598Z,5.33
2019-01-31T18:43:07.295Z,5.17
2019-01-31T18:45:37.469Z,8.00
2019-01-31T18:48:07.743Z,4.40
2019-01-31T18:50:40.852Z,4.80
2019-01-31T18:53:10.521Z,4.47
2019-01-31T18:55:40.021Z,4.87
2019-01-31T18:58:09.451Z,4.30
2019-01-31T19:00:45.445Z,3.80
2019-01-31T19:03:14.942Z,4.93
2019-01-31T19:05:44.713Z,7.03
2019-01-31T19:08:14.146Z,5.37
2019-01-31T19:10:44.018Z,6.47
2019-01-31T19:13:13.552Z,5.03
2019-01-31T19:15:42.975Z,4.77
2019-01-31T19:18:12.421Z,5.03
2019-01-31T19:20:41.985Z,5.83
2019-01-31T19:23:11.493Z,5.60
2019-01-31T19:25:40.917Z,5.53
2019-01-31T19:28:13.097Z,6.43
2019-01-31T19:30:41.907Z,8.43
2019-01-31T19:33:11.344Z,4.60
2019-01-31T19:35:40.838Z,6.00
2019-01-31T19:38:10.611Z,6.27
2019-01-31T19:40:43.047Z,4.63
2019-01-31T19:43:12.476Z,5.03
2019-01-31T19:45:48.103Z,5.60
2019-01-31T19:48:17.539Z,4.17
2019-01-31T19:50:47.039Z,4.40
2019-01-31T19:53:16.522Z,5.53
2019-01-31T19:55:45.975Z,5.63
2019-01-31T19:58:15.457Z,6.20
2019-01-31T20:00:44.888Z,4.80
2019-01-31T20:03:14.385Z,5.13
2019-01-31T20:05:43.812Z,4.73
2019-01-31T20:08:13.799Z,4.60
2019-01-31T20:10:43.480Z,3.97
2019-01-31T20:13:12.990Z,4.70
2019-01-31T20:15:43.153Z,4.40
2019-01-31T20:18:12.798Z,4.33
2019-01-31T20:20:42.873Z,5.70
2019-01-31T20:23:12.515Z,6.03
2019-01-31T20:25:42.011Z,4.87
2019-01-31T20:28:11.507Z,6.03
2019-01-31T20:30:40.942Z,6.03
2019-01-31T20:33:10.492Z,5.47
2019-01-31T20:35:39.921Z,6.43
2019-01-31T20:38:09.416Z,5.70
2019-01-31T20:40:40.493Z,4.83
2019-01-31T20:43:10.332Z,6.97
2019-01-31T20:45:39.766Z,5.33
2019-01-31T20:48:09.329Z,5.43
2019-01-31T20:50:40.174Z,4.60
2019-01-31T20:53:09.846Z,6.87
2019-01-31T20:55:39.268Z,4.53
2019-01-31T20:58:08.764Z,4.70
2019-01-31T21:00:41.517Z,4.73
2019-01-31T21:03:11.550Z,4.47
2019-01-31T21:05:41.589Z,6.90
2019-01-31T21:08:11.755Z,5.13
2019-01-31T21:10:41.193Z,4.17
2019-01-31T21:13:10.620Z,3.90
2019-01-31T21:15:40.128Z,5.10
2019-01-31T21:18:10.098Z,3.93
2019-01-31T21:20:39.669Z,4.70
2019-01-31T21:23:10.434Z,4.37
2019-01-31T21:25:39.871Z,4.10
2019-01-31T21:28:09.304Z,4.43
2019-01-31T21:30:40.443Z,3.50
2019-01-31T21:33:10.013Z,4.33
2019-01-31T21:35:39.589Z,4.27
2019-01-31T21:38:09.088Z,4.73
2019-01-31T21:40:38.595Z,3.57
2019-01-31T21:43:08.157Z,6.10
2019-01-31T21:45:37.733Z,4.00
2019-01-31T21:48:07.468Z,4.33
2019-01-31T21:50:37.497Z,3.87
2019-01-31T21:53:07.063Z,3.00
2019-01-31T21:55:36.574Z,3.27
2019-01-31T21:58:06.341Z,4.60
2019-01-31T22:00:36.657Z,3.20
2019-01-31T22:03:07.289Z,3.77
2019-01-31T22:05:39.837Z,3.37
2019-01-31T22:08:09.334Z,4.00
2019-01-31T22:10:38.764Z,6.80
2019-01-31T22:13:08.193Z,3.43
2019-01-31T22:15:37.768Z,3.40
2019-01-31T22:18:07.337Z,2.93
2019-01-31T22:20:36.840Z,5.53
2019-01-31T22:23:06.339Z,3.60
2019-01-31T22:25:35.771Z,4.13
2019-01-31T22:28:06.728Z,3.37
2019-01-31T22:30:37.607Z,3.90
2019-01-31T22:33:07.773Z,5.30
2019-01-31T22:35:37.221Z,3.17
2019-01-31T22:38:06.957Z,2.23
2019-01-31T22:40:36.395Z,3.03
2019-01-31T22:43:06.060Z,2.30
2019-01-31T22:45:35.578Z,2.80
2019-01-31T22:48:06.941Z,2.93
2019-01-31T22:50:36.380Z,3.73
2019-01-31T22:53:06.108Z,3.33
2019-01-31T22:55:35.548Z,3.53
2019-01-31T22:58:05.570Z,3.70
2019-01-31T23:01:05.516Z,3.50
2019-01-31T23:03:35.010Z,2.73
2019-01-31T23:06:05.557Z,2.10
2019-01-31T23:08:35.018Z,3.50
2019-01-31T23:11:04.790Z,3.10
2019-01-31T23:13:34.218Z,3.57
2019-01-31T23:16:03.657Z,2.50
2019-01-31T23:18:33.197Z,7.53
2019-01-31T23:21:02.602Z,1.47
2019-01-31T23:23:32.029Z,2.10
2019-01-31T23:26:01.940Z,1.63
2019-01-31T23:28:31.375Z,1.63
2019-01-31T23:31:00.808Z,2.30
2019-01-31T23:33:30.238Z,1.40
2019-01-31T23:35:59.678Z,2.43
2019-01-31T23:38:29.104Z,2.77
2019-01-31T23:40:58.562Z,2.60
2019-01-31T23:43:27.988Z,2.40
2019-01-31T23:45:57.425Z,4.67
2019-01-31T23:48:26.850Z,2.57
2019-01-31T23:50:56.353Z,3.67
2019-01-31T23:53:25.795Z,2.30
2019-01-31T23:55:55.336Z,1.80
2019-01-31T23:58:24.729Z,2.47
